sensor_id;sensor_type;location;lat;lon;timestamp;P1;durP1;ratioP1;P2;durP2;ratioP2
4583;SDS011;2304;47.606;12.186;2022-11-20T00:04:37;6.60;;;4.87;;
4583;SDS011;2304;47.606;12.186;2022-11-20T00:09:39;13.50;;;8.60;;
4583;SDS011;2304;47.606;12.186;2022-11-20T00:14:42;6.23;;;4.13;;
4583;SDS011;2304;47.606;12.186;2022-11-20T00:19:44;5.73;;;4.37;;
4583;SDS011;2304;47.606;12.186;2022-11-20T00:24:46;7.00;;;4.30;;
4583;SDS011;2304;47.606;12.186;2022-11-20T00:29:49;8.50;;;4.40;;
4583;SDS011;2304;47.606;12.186;2022-11-20T00:34:51;8.50;;;3.83;;
4583;SDS011;2304;47.606;12.186;2022-11-20T00:39:53;7.30;;;4.37;;
4583;SDS011;2304;47.606;12.186;2022-11-20T00:44:56;7.90;;;4.77;;
4583;SDS011;2304;47.606;12.186;2022-11-20T00:49:59;7.17;;;4.80;;
4583;SDS011;2304;47.606;12.186;2022-11-20T00:55:01;5.90;;;4.80;;
4583;SDS011;2304;47.606;12.186;2022-11-20T01:00:05;8.70;;;5.03;;
4583;SDS011;2304;47.606;12.186;2022-11-20T01:05:08;9.10;;;5.33;;
4583;SDS011;2304;47.606;12.186;2022-11-20T01:10:10;15.40;;;5.93;;
4583;SDS011;2304;47.606;12.186;2022-11-20T01:15:13;9.50;;;5.40;;
4583;SDS011;2304;47.606;12.186;2022-11-20T01:20:15;7.33;;;4.77;;
4583;SDS011;2304;47.606;12.186;2022-11-20T01:25:17;7.57;;;5.40;;
4583;SDS011;2304;47.606;12.186;2022-11-20T01:30:20;7.53;;;5.90;;
4583;SDS011;2304;47.606;12.186;2022-11-20T01:35:22;8.77;;;5.80;;
4583;SDS011;2304;47.606;12.186;2022-11-20T01:40:24;10.03;;;6.37;;
4583;SDS011;2304;47.606;12.186;2022-11-20T01:45:50;11.30;;;6.37;;
4583;SDS011;2304;47.606;12.186;2022-11-20T01:50:58;7.77;;;5.70;;
4583;SDS011;2304;47.606;12.186;2022-11-20T01:56:01;9.90;;;6.53;;
4583;SDS011;2304;47.606;12.186;2022-11-20T02:01:08;8.63;;;6.50;;
4583;SDS011;2304;47.606;12.186;2022-11-20T02:06:11;9.13;;;5.77;;
4583;SDS011;2304;47.606;12.186;2022-11-20T02:11:18;6.90;;;5.43;;
4583;SDS011;2304;47.606;12.186;2022-11-20T02:16:23;8.93;;;5.13;;
4583;SDS011;2304;47.606;12.186;2022-11-20T02:21:32;6.70;;;5.50;;
4583;SDS011;2304;47.606;12.186;2022-11-20T02:26:41;9.47;;;6.00;;
4583;SDS011;2304;47.606;12.186;2022-11-20T02:31:47;8.73;;;6.60;;
4583;SDS011;2304;47.606;12.186;2022-11-20T02:36:49;7.80;;;5.77;;
4583;SDS011;2304;47.606;12.186;2022-11-20T02:41:54;8.50;;;5.80;;
4583;SDS011;2304;47.606;12.186;2022-11-20T02:46:57;7.40;;;5.27;;
4583;SDS011;2304;47.606;12.186;2022-11-20T02:52:00;8.17;;;5.33;;
4583;SDS011;2304;47.606;12.186;2022-11-20T02:57:04;7.70;;;5.40;;
4583;SDS011;2304;47.606;12.186;2022-11-20T03:02:06;9.20;;;6.20;;
4583;SDS011;2304;47.606;12.186;2022-11-20T03:07:08;9.27;;;6.70;;
4583;SDS011;2304;47.606;12.186;2022-11-20T03:12:12;10.17;;;7.20;;
4583;SDS011;2304;47.606;12.186;2022-11-20T03:17:15;10.87;;;6.73;;
4583;SDS011;2304;47.606;12.186;2022-11-20T03:22:17;9.60;;;6.33;;
4583;SDS011;2304;47.606;12.186;2022-11-20T03:27:21;7.47;;;5.60;;
4583;SDS011;2304;47.606;12.186;2022-11-20T03:32:22;7.73;;;5.23;;
4583;SDS011;2304;47.606;12.186;2022-11-20T03:37:24;5.20;;;3.33;;
4583;SDS011;2304;47.606;12.186;2022-11-20T03:42:27;4.30;;;2.70;;
4583;SDS011;2304;47.606;12.186;2022-11-20T03:47:48;3.80;;;2.20;;
4583;SDS011;2304;47.606;12.186;2022-11-20T03:52:50;3.43;;;2.40;;
4583;SDS011;2304;47.606;12.186;2022-11-20T03:57:53;3.03;;;1.70;;
4583;SDS011;2304;47.606;12.186;2022-11-20T04:02:57;3.83;;;1.97;;
4583;SDS011;2304;47.606;12.186;2022-11-20T04:07:59;4.20;;;2.37;;
4583;SDS011;2304;47.606;12.186;2022-11-20T04:13:03;6.13;;;3.50;;
4583;SDS011;2304;47.606;12.186;2022-11-20T04:18:05;5.37;;;4.23;;
4583;SDS011;2304;47.606;12.186;2022-11-20T04:23:06;3.93;;;3.00;;
4583;SDS011;2304;47.606;12.186;2022-11-20T04:28:10;5.40;;;4.20;;
4583;SDS011;2304;47.606;12.186;2022-11-20T04:33:12;6.23;;;4.70;;
4583;SDS011;2304;47.606;12.186;2022-11-20T04:38:14;4.77;;;3.50;;
4583;SDS011;2304;47.606;12.186;2022-11-20T04:43:17;6.37;;;3.80;;
4583;SDS011;2304;47.606;12.186;2022-11-20T04:48:19;5.60;;;4.23;;
4583;SDS011;2304;47.606;12.186;2022-11-20T04:53:21;5.30;;;3.57;;
4583;SDS011;2304;47.606;12.186;2022-11-20T04:58:24;21.00;;;11.60;;
4583;SDS011;2304;47.606;12.186;2022-11-20T05:03:26;4.60;;;2.77;;
4583;SDS011;2304;47.606;12.186;2022-11-20T05:08:28;3.00;;;2.23;;
4583;SDS011;2304;47.606;12.186;2022-11-20T05:13:32;3.83;;;2.47;;
4583;SDS011;2304;47.606;12.186;2022-11-20T05:18:34;3.70;;;2.23;;
4583;SDS011;2304;47.606;12.186;2022-11-20T05:23:37;2.90;;;2.10;;
4583;SDS011;2304;47.606;12.186;2022-11-20T05:28:41;3.03;;;1.63;;
4583;SDS011;2304;47.606;12.186;2022-11-20T05:33:43;4.97;;;1.87;;
4583;SDS011;2304;47.606;12.186;2022-11-20T05:38:45;2.70;;;1.50;;
4583;SDS011;2304;47.606;12.186;2022-11-20T05:43:49;4.97;;;2.00;;
4583;SDS011;2304;47.606;12.186;2022-11-20T05:48:51;3.80;;;2.50;;
4583;SDS011;2304;47.606;12.186;2022-11-20T05:53:53;5.33;;;2.90;;
4583;SDS011;2304;47.606;12.186;2022-11-20T05:58:58;2.80;;;1.90;;
4583;SDS011;2304;47.606;12.186;2022-11-20T06:04:00;2.87;;;1.60;;
4583;SDS011;2304;47.606;12.186;2022-11-20T06:09:03;2.70;;;2.27;;
4583;SDS011;2304;47.606;12.186;2022-11-20T06:14:06;2.47;;;1.83;;
4583;SDS011;2304;47.606;12.186;2022-11-20T06:19:08;2.30;;;1.70;;
4583;SDS011;2304;47.606;12.186;2022-11-20T06:24:10;2.83;;;2.33;;
4583;SDS011;2304;47.606;12.186;2022-11-20T06:29:14;5.83;;;3.23;;
4583;SDS011;2304;47.606;12.186;2022-11-20T06:34:16;5.30;;;2.70;;
4583;SDS011;2304;47.606;12.186;2022-11-20T06:39:17;6.07;;;2.87;;
4583;SDS011;2304;47.606;12.186;2022-11-20T06:44:21;7.33;;;4.40;;
4583;SDS011;2304;47.606;12.186;2022-11-20T06:49:23;7.67;;;5.37;;
4583;SDS011;2304;47.606;12.186;2022-11-20T06:54:25;5.07;;;4.10;;
4583;SDS011;2304;47.606;12.186;2022-11-20T06:59:28;4.40;;;3.53;;
4583;SDS011;2304;47.606;12.186;2022-11-20T07:04:30;7.00;;;4.70;;
4583;SDS011;2304;47.606;12.186;2022-11-20T07:09:32;5.57;;;4.07;;
4583;SDS011;2304;47.606;12.186;2022-11-20T07:14:35;3.60;;;2.90;;
4583;SDS011;2304;47.606;12.186;2022-11-20T07:19:37;6.10;;;3.50;;
4583;SDS011;2304;47.606;12.186;2022-11-20T07:24:39;3.83;;;2.10;;
4583;SDS011;2304;47.606;12.186;2022-11-20T07:29:42;5.43;;;2.83;;
4583;SDS011;2304;47.606;12.186;2022-11-20T07:34:44;5.27;;;3.90;;
4583;SDS011;2304;47.606;12.186;2022-11-20T07:39:46;5.13;;;3.70;;
4583;SDS011;2304;47.606;12.186;2022-11-20T07:44:50;8.93;;;5.40;;
4583;SDS011;2304;47.606;12.186;2022-11-20T07:49:53;8.00;;;5.40;;
4583;SDS011;2304;47.606;12.186;2022-11-20T07:54:55;7.43;;;5.50;;
4583;SDS011;2304;47.606;12.186;2022-11-20T07:59:58;7.70;;;5.90;;
4583;SDS011;2304;47.606;12.186;2022-11-20T08:05:00;12.57;;;5.43;;
4583;SDS011;2304;47.606;12.186;2022-11-20T08:10:02;7.07;;;4.33;;
4583;SDS011;2304;47.606;12.186;2022-11-20T08:15:06;9.60;;;5.17;;
4583;SDS011;2304;47.606;12.186;2022-11-20T08:20:09;6.83;;;4.67;;
4583;SDS011;2304;47.606;12.186;2022-11-20T08:25:11;6.50;;;5.00;;
4583;SDS011;2304;47.606;12.186;2022-11-20T08:30:15;9.23;;;6.30;;
4583;SDS011;2304;47.606;12.186;2022-11-20T08:35:17;6.37;;;5.50;;
4583;SDS011;2304;47.606;12.186;2022-11-20T08:40:19;7.60;;;5.70;;
4583;SDS011;2304;47.606;12.186;2022-11-20T08:45:22;7.03;;;5.43;;
4583;SDS011;2304;47.606;12.186;2022-11-20T08:50:24;8.00;;;6.00;;
4583;SDS011;2304;47.606;12.186;2022-11-20T08:55:26;7.30;;;5.33;;
4583;SDS011;2304;47.606;12.186;2022-11-20T09:00:30;8.10;;;5.80;;
4583;SDS011;2304;47.606;12.186;2022-11-20T09:05:32;7.87;;;5.30;;
4583;SDS011;2304;47.606;12.186;2022-11-20T09:10:34;7.40;;;5.50;;
4583;SDS011;2304;47.606;12.186;2022-11-20T09:15:37;9.17;;;6.37;;
4583;SDS011;2304;47.606;12.186;2022-11-20T09:20:39;8.33;;;6.83;;
4583;SDS011;2304;47.606;12.186;2022-11-20T09:25:41;10.40;;;7.70;;
4583;SDS011;2304;47.606;12.186;2022-11-20T09:30:45;8.07;;;7.00;;
4583;SDS011;2304;47.606;12.186;2022-11-20T09:35:47;8.20;;;7.07;;
4583;SDS011;2304;47.606;12.186;2022-11-20T09:40:50;8.57;;;6.77;;
4583;SDS011;2304;47.606;12.186;2022-11-20T09:46:03;8.73;;;6.20;;
4583;SDS011;2304;47.606;12.186;2022-11-20T09:51:11;7.70;;;5.70;;
4583;SDS011;2304;47.606;12.186;2022-11-20T09:56:22;6.97;;;5.00;;
4583;SDS011;2304;47.606;12.186;2022-11-20T10:01:29;8.37;;;5.10;;
4583;SDS011;2304;47.606;12.186;2022-11-20T10:06:33;6.13;;;3.90;;
4583;SDS011;2304;47.606;12.186;2022-11-20T10:11:46;5.77;;;4.13;;
4583;SDS011;2304;47.606;12.186;2022-11-20T10:16:58;5.20;;;3.60;;
4583;SDS011;2304;47.606;12.186;2022-11-20T10:22:11;5.03;;;3.70;;
4583;SDS011;2304;47.606;12.186;2022-11-20T10:27:31;4.90;;;3.50;;
4583;SDS011;2304;47.606;12.186;2022-11-20T10:32:43;5.97;;;4.00;;
4583;SDS011;2304;47.606;12.186;2022-11-20T10:37:49;5.23;;;3.87;;
4583;SDS011;2304;47.606;12.186;2022-11-20T10:42:56;6.43;;;4.80;;
4583;SDS011;2304;47.606;12.186;2022-11-20T10:48:10;6.93;;;4.53;;
4583;SDS011;2304;47.606;12.186;2022-11-20T10:53:19;6.30;;;4.50;;
4583;SDS011;2304;47.606;12.186;2022-11-20T10:58:35;5.77;;;4.13;;
4583;SDS011;2304;47.606;12.186;2022-11-20T11:03:44;4.80;;;3.80;;
4583;SDS011;2304;47.606;12.186;2022-11-20T11:08:46;5.83;;;5.03;;
4583;SDS011;2304;47.606;12.186;2022-11-20T11:13:50;9.70;;;5.80;;
4583;SDS011;2304;47.606;12.186;2022-11-20T11:19:03;6.87;;;5.57;;
4583;SDS011;2304;47.606;12.186;2022-11-20T11:24:14;7.83;;;5.60;;
4583;SDS011;2304;47.606;12.186;2022-11-20T11:29:20;6.87;;;5.23;;
4583;SDS011;2304;47.606;12.186;2022-11-20T11:34:24;9.50;;;5.30;;
4583;SDS011;2304;47.606;12.186;2022-11-20T11:39:27;6.97;;;5.20;;
4583;SDS011;2304;47.606;12.186;2022-11-20T11:44:31;7.00;;;4.70;;
4583;SDS011;2304;47.606;12.186;2022-11-20T11:50:01;6.47;;;5.10;;
4583;SDS011;2304;47.606;12.186;2022-11-20T11:55:12;6.90;;;5.00;;
4583;SDS011;2304;47.606;12.186;2022-11-20T12:00:18;6.17;;;4.97;;
4583;SDS011;2304;47.606;12.186;2022-11-20T12:05:25;6.17;;;4.73;;
4583;SDS011;2304;47.606;12.186;2022-11-20T12:10:34;8.90;;;5.47;;
4583;SDS011;2304;47.606;12.186;2022-11-20T12:15:42;6.90;;;5.17;;
4583;SDS011;2304;47.606;12.186;2022-11-20T12:20:51;6.50;;;5.40;;
4583;SDS011;2304;47.606;12.186;2022-11-20T12:26:03;7.10;;;5.03;;
4583;SDS011;2304;47.606;12.186;2022-11-20T12:31:28;6.87;;;4.40;;
4583;SDS011;2304;47.606;12.186;2022-11-20T12:36:43;5.40;;;3.10;;
4583;SDS011;2304;47.606;12.186;2022-11-20T12:41:56;9.20;;;5.20;;
4583;SDS011;2304;47.606;12.186;2022-11-20T12:47:24;4.40;;;3.13;;
4583;SDS011;2304;47.606;12.186;2022-11-20T12:52:40;8.63;;;3.07;;
4583;SDS011;2304;47.606;12.186;2022-11-20T12:57:49;6.10;;;3.07;;
4583;SDS011;2304;47.606;12.186;2022-11-20T13:03:04;4.57;;;2.20;;
4583;SDS011;2304;47.606;12.186;2022-11-20T13:08:20;4.00;;;1.90;;
4583;SDS011;2304;47.606;12.186;2022-11-20T13:13:26;5.63;;;3.70;;
4583;SDS011;2304;47.606;12.186;2022-11-20T13:18:36;3.87;;;2.60;;
4583;SDS011;2304;47.606;12.186;2022-11-20T13:23:43;5.60;;;3.43;;
4583;SDS011;2304;47.606;12.186;2022-11-20T13:28:45;6.07;;;4.17;;
4583;SDS011;2304;47.606;12.186;2022-11-20T13:33:49;12.10;;;7.23;;
4583;SDS011;2304;47.606;12.186;2022-11-20T13:38:57;4.00;;;3.27;;
4583;SDS011;2304;47.606;12.186;2022-11-20T13:44:04;6.20;;;4.10;;
4583;SDS011;2304;47.606;12.186;2022-11-20T13:49:16;6.57;;;4.30;;
4583;SDS011;2304;47.606;12.186;2022-11-20T13:54:27;5.40;;;3.77;;
4583;SDS011;2304;47.606;12.186;2022-11-20T13:59:53;8.70;;;4.47;;
4583;SDS011;2304;47.606;12.186;2022-11-20T14:04:59;7.10;;;4.40;;
4583;SDS011;2304;47.606;12.186;2022-11-20T14:10:04;5.50;;;4.50;;
4583;SDS011;2304;47.606;12.186;2022-11-20T14:20:29;4.47;;;2.80;;
4583;SDS011;2304;47.606;12.186;2022-11-20T14:25:33;5.10;;;3.00;;
4583;SDS011;2304;47.606;12.186;2022-11-20T14:30:37;3.97;;;2.93;;
4583;SDS011;2304;47.606;12.186;2022-11-20T14:35:44;4.70;;;2.50;;
4583;SDS011;2304;47.606;12.186;2022-11-20T14:40:49;5.27;;;3.90;;
4583;SDS011;2304;47.606;12.186;2022-11-20T14:45:55;6.80;;;4.53;;
4583;SDS011;2304;47.606;12.186;2022-11-20T14:51:00;8.87;;;6.00;;
4583;SDS011;2304;47.606;12.186;2022-11-20T14:56:04;9.40;;;6.90;;
4583;SDS011;2304;47.606;12.186;2022-11-20T15:01:06;13.73;;;7.77;;
4583;SDS011;2304;47.606;12.186;2022-11-20T15:06:13;10.10;;;5.73;;
4583;SDS011;2304;47.606;12.186;2022-11-20T15:11:18;3.90;;;2.60;;
4583;SDS011;2304;47.606;12.186;2022-11-20T15:16:24;10.83;;;5.70;;
4583;SDS011;2304;47.606;12.186;2022-11-20T15:21:27;25.97;;;10.33;;
4583;SDS011;2304;47.606;12.186;2022-11-20T15:26:31;6.40;;;4.47;;
4583;SDS011;2304;47.606;12.186;2022-11-20T15:31:33;10.10;;;5.27;;
4583;SDS011;2304;47.606;12.186;2022-11-20T15:36:35;39.53;;;12.07;;
4583;SDS011;2304;47.606;12.186;2022-11-20T15:41:39;8.90;;;4.43;;
4583;SDS011;2304;47.606;12.186;2022-11-20T15:46:41;19.67;;;11.40;;
4583;SDS011;2304;47.606;12.186;2022-11-20T15:51:46;11.83;;;5.60;;
4583;SDS011;2304;47.606;12.186;2022-11-20T15:56:51;15.27;;;7.40;;
4583;SDS011;2304;47.606;12.186;2022-11-20T16:01:53;23.10;;;10.07;;
4583;SDS011;2304;47.606;12.186;2022-11-20T16:06:55;3.70;;;2.10;;
4583;SDS011;2304;47.606;12.186;2022-11-20T16:11:58;17.00;;;8.20;;
4583;SDS011;2304;47.606;12.186;2022-11-20T16:17:00;28.33;;;10.67;;
4583;SDS011;2304;47.606;12.186;2022-11-20T16:22:03;13.77;;;7.77;;
4583;SDS011;2304;47.606;12.186;2022-11-20T16:27:06;17.80;;;12.30;;
4583;SDS011;2304;47.606;12.186;2022-11-20T16:32:08;22.37;;;16.40;;
4583;SDS011;2304;47.606;12.186;2022-11-20T16:37:11;47.53;;;19.77;;
4583;SDS011;2304;47.606;12.186;2022-11-20T16:42:15;13.13;;;7.67;;
4583;SDS011;2304;47.606;12.186;2022-11-20T16:47:16;23.53;;;13.10;;
4583;SDS011;2304;47.606;12.186;2022-11-20T16:52:18;12.17;;;8.70;;
4583;SDS011;2304;47.606;12.186;2022-11-20T16:57:22;18.73;;;13.83;;
4583;SDS011;2304;47.606;12.186;2022-11-20T17:02:24;6.20;;;4.03;;
4583;SDS011;2304;47.606;12.186;2022-11-20T17:07:26;47.77;;;22.40;;
4583;SDS011;2304;47.606;12.186;2022-11-20T17:12:29;19.70;;;8.70;;
4583;SDS011;2304;47.606;12.186;2022-11-20T17:17:31;9.40;;;5.70;;
4583;SDS011;2304;47.606;12.186;2022-11-20T17:22:33;32.47;;;18.70;;
4583;SDS011;2304;47.606;12.186;2022-11-20T17:27:36;125.47;;;45.57;;
4583;SDS011;2304;47.606;12.186;2022-11-20T17:32:38;102.53;;;36.77;;
4583;SDS011;2304;47.606;12.186;2022-11-20T17:37:44;28.60;;;16.23;;
4583;SDS011;2304;47.606;12.186;2022-11-20T17:42:47;29.60;;;14.50;;
4583;SDS011;2304;47.606;12.186;2022-11-20T17:47:49;23.77;;;11.30;;
4583;SDS011;2304;47.606;12.186;2022-11-20T17:52:51;7.70;;;4.90;;
4583;SDS011;2304;47.606;12.186;2022-11-20T17:57:55;19.93;;;11.70;;
4583;SDS011;2304;47.606;12.186;2022-11-20T18:03:01;19.07;;;10.90;;
4583;SDS011;2304;47.606;12.186;2022-11-20T18:08:03;13.53;;;8.67;;
4583;SDS011;2304;47.606;12.186;2022-11-20T18:13:06;8.00;;;5.63;;
4583;SDS011;2304;47.606;12.186;2022-11-20T18:18:09;12.90;;;7.77;;
4583;SDS011;2304;47.606;12.186;2022-11-20T18:23:10;21.00;;;9.97;;
4583;SDS011;2304;47.606;12.186;2022-11-20T18:28:14;32.70;;;15.47;;
4583;SDS011;2304;47.606;12.186;2022-11-20T18:33:15;51.30;;;24.63;;
4583;SDS011;2304;47.606;12.186;2022-11-20T18:38:17;40.43;;;18.43;;
4583;SDS011;2304;47.606;12.186;2022-11-20T18:43:21;54.80;;;22.17;;
4583;SDS011;2304;47.606;12.186;2022-11-20T18:48:40;50.97;;;14.63;;
4583;SDS011;2304;47.606;12.186;2022-11-20T18:53:42;34.93;;;13.00;;
4583;SDS011;2304;47.606;12.186;2022-11-20T18:58:45;15.17;;;10.73;;
4583;SDS011;2304;47.606;12.186;2022-11-20T19:03:47;18.30;;;13.60;;
4583;SDS011;2304;47.606;12.186;2022-11-20T19:08:49;15.03;;;8.93;;
4583;SDS011;2304;47.606;12.186;2022-11-20T19:13:52;17.67;;;8.13;;
4583;SDS011;2304;47.606;12.186;2022-11-20T19:18:54;17.57;;;9.77;;
4583;SDS011;2304;47.606;12.186;2022-11-20T19:23:57;17.20;;;9.03;;
4583;SDS011;2304;47.606;12.186;2022-11-20T19:29:01;32.00;;;18.03;;
4583;SDS011;2304;47.606;12.186;2022-11-20T19:34:04;11.40;;;7.90;;
4583;SDS011;2304;47.606;12.186;2022-11-20T19:39:06;12.53;;;7.03;;
4583;SDS011;2304;47.606;12.186;2022-11-20T19:44:11;15.23;;;8.40;;
4583;SDS011;2304;47.606;12.186;2022-11-20T19:49:14;18.30;;;8.70;;
4583;SDS011;2304;47.606;12.186;2022-11-20T19:54:16;18.90;;;9.07;;
4583;SDS011;2304;47.606;12.186;2022-11-20T19:59:19;24.13;;;10.00;;
4583;SDS011;2304;47.606;12.186;2022-11-20T20:04:21;14.87;;;8.00;;
4583;SDS011;2304;47.606;12.186;2022-11-20T20:09:23;9.47;;;5.20;;
4583;SDS011;2304;47.606;12.186;2022-11-20T20:14:28;9.60;;;5.40;;
4583;SDS011;2304;47.606;12.186;2022-11-20T20:19:31;9.90;;;7.23;;
4583;SDS011;2304;47.606;12.186;2022-11-20T20:24:33;10.90;;;7.33;;
4583;SDS011;2304;47.606;12.186;2022-11-20T20:29:36;15.60;;;8.40;;
4583;SDS011;2304;47.606;12.186;2022-11-20T20:34:38;11.70;;;8.00;;
4583;SDS011;2304;47.606;12.186;2022-11-20T20:39:40;18.20;;;12.93;;
4583;SDS011;2304;47.606;12.186;2022-11-20T20:44:44;15.67;;;9.07;;
4583;SDS011;2304;47.606;12.186;2022-11-20T20:50:15;12.80;;;7.10;;
4583;SDS011;2304;47.606;12.186;2022-11-20T20:55:17;12.10;;;7.87;;
4583;SDS011;2304;47.606;12.186;2022-11-20T21:00:21;16.83;;;9.77;;
4583;SDS011;2304;47.606;12.186;2022-11-20T21:05:22;15.70;;;9.07;;
4583;SDS011;2304;47.606;12.186;2022-11-20T21:10:25;13.80;;;9.00;;
4583;SDS011;2304;47.606;12.186;2022-11-20T21:15:28;15.73;;;9.97;;
4583;SDS011;2304;47.606;12.186;2022-11-20T21:20:30;24.80;;;13.23;;
4583;SDS011;2304;47.606;12.186;2022-11-20T21:25:49;19.17;;;10.40;;
4583;SDS011;2304;47.606;12.186;2022-11-20T21:30:56;16.37;;;8.63;;
4583;SDS011;2304;47.606;12.186;2022-11-20T21:36:03;14.53;;;7.40;;
4583;SDS011;2304;47.606;12.186;2022-11-20T21:41:06;12.23;;;7.67;;
4583;SDS011;2304;47.606;12.186;2022-11-20T21:46:10;12.50;;;7.70;;
4583;SDS011;2304;47.606;12.186;2022-11-20T21:51:14;11.10;;;7.90;;
4583;SDS011;2304;47.606;12.186;2022-11-20T21:56:18;11.80;;;7.00;;
4583;SDS011;2304;47.606;12.186;2022-11-20T22:01:23;9.50;;;5.80;;
4583;SDS011;2304;47.606;12.186;2022-11-20T22:06:28;10.27;;;6.33;;
4583;SDS011;2304;47.606;12.186;2022-11-20T22:11:31;10.90;;;6.40;;
4583;SDS011;2304;47.606;12.186;2022-11-20T22:16:35;11.77;;;6.03;;
4583;SDS011;2304;47.606;12.186;2022-11-20T22:21:38;11.97;;;6.53;;
4583;SDS011;2304;47.606;12.186;2022-11-20T22:26:40;9.63;;;5.80;;
4583;SDS011;2304;47.606;12.186;2022-11-20T22:31:44;10.47;;;5.70;;
4583;SDS011;2304;47.606;12.186;2022-11-20T22:36:46;10.20;;;5.93;;
4583;SDS011;2304;47.606;12.186;2022-11-20T22:41:48;11.00;;;6.50;;
4583;SDS011;2304;47.606;12.186;2022-11-20T22:46:51;8.17;;;5.30;;
4583;SDS011;2304;47.606;12.186;2022-11-20T22:51:53;12.83;;;5.83;;
4583;SDS011;2304;47.606;12.186;2022-11-20T22:56:55;7.93;;;5.30;;
4583;SDS011;2304;47.606;12.186;2022-11-20T23:01:59;7.60;;;4.50;;
4583;SDS011;2304;47.606;12.186;2022-11-20T23:07:00;11.40;;;5.20;;
4583;SDS011;2304;47.606;12.186;2022-11-20T23:12:03;10.63;;;5.90;;
4583;SDS011;2304;47.606;12.186;2022-11-20T23:17:06;9.07;;;5.43;;
4583;SDS011;2304;47.606;12.186;2022-11-20T23:22:08;8.00;;;5.37;;
4583;SDS011;2304;47.606;12.186;2022-11-20T23:27:10;10.17;;;5.37;;
4583;SDS011;2304;47.606;12.186;2022-11-20T23:32:14;8.73;;;5.60;;
4583;SDS011;2304;47.606;12.186;2022-11-20T23:37:16;7.60;;;4.83;;
4583;SDS011;2304;47.606;12.186;2022-11-20T23:42:17;7.77;;;4.97;;
4583;SDS011;2304;47.606;12.186;2022-11-20T23:47:21;8.40;;;5.50;;
4583;SDS011;2304;47.606;12.186;2022-11-20T23:52:23;9.57;;;4.97;;
4583;SDS011;2304;47.606;12.186;2022-11-20T23:57:25;8.70;;;4.97;;
